sensor_id;sensor_type;location;lat;lon;timestamp;pressure;altitude;pressure_sealevel;temperature;humidity
61908;BME280;47864;52.526;19.672;2022-12-07T00:01:15;100263.66;;;2.65;100.00
61908;BME280;47864;52.526;19.672;2022-12-07T00:03:17;100266.72;;;2.59;100.00
61908;BME280;47864;52.526;19.672;2022-12-07T00:05:19;100263.34;;;2.70;100.00
61908;BME280;47864;52.526;19.672;2022-12-07T00:07:21;100261.97;;;2.64;100.00
61908;BME280;47864;52.526;19.672;2022-12-07T00:09:28;100257.16;;;2.71;100.00
61908;BME280;47864;52.526;19.672;2022-12-07T00:11:31;100260.72;;;2.70;100.00
61908;BME280;47864;52.526;19.672;2022-12-07T00:13:34;100263.09;;;2.73;100.00
61908;BME280;47864;52.526;19.672;2022-12-07T00:15:36;100260.47;;;2.73;100.00
61908;BME280;47864;52.526;19.672;2022-12-07T00:17:38;100260.16;;;2.77;100.00
61908;BME280;47864;52.526;19.672;2022-12-07T00:19:40;100261.00;;;2.78;100.00
61908;BME280;47864;52.526;19.672;2022-12-07T00:21:42;100263.72;;;2.76;100.00
61908;BME280;47864;52.526;19.672;2022-12-07T00:23:46;100255.25;;;2.73;100.00
61908;BME280;47864;52.526;19.672;2022-12-07T00:25:48;100254.75;;;2.67;100.00
61908;BME280;47864;52.526;19.672;2022-12-07T00:27:49;100255.97;;;2.75;100.00
61908;BME280;47864;52.526;19.672;2022-12-07T00:29:51;100265.84;;;2.71;100.00
61908;BME280;47864;52.526;19.672;2022-12-07T00:31:53;100249.84;;;2.63;100.00
61908;BME280;47864;52.526;19.672;2022-12-07T00:33:56;100263.22;;;2.71;100.00
61908;BME280;47864;52.526;19.672;2022-12-07T00:35:58;100255.03;;;2.76;100.00
61908;BME280;47864;52.526;19.672;2022-12-07T00:38:00;100251.91;;;2.71;100.00
61908;BME280;47864;52.526;19.672;2022-12-07T00:40:02;100248.75;;;2.78;100.00
61908;BME280;47864;52.526;19.672;2022-12-07T00:42:04;100241.44;;;2.71;100.00
61908;BME280;47864;52.526;19.672;2022-12-07T00:44:06;100252.03;;;2.69;100.00
61908;BME280;47864;52.526;19.672;2022-12-07T00:46:08;100243.13;;;2.72;100.00
61908;BME280;47864;52.526;19.672;2022-12-07T00:48:10;100245.00;;;2.70;100.00
61908;BME280;47864;52.526;19.672;2022-12-07T00:50:12;100243.13;;;2.72;100.00
61908;BME280;47864;52.526;19.672;2022-12-07T00:52:14;100239.66;;;2.71;100.00
61908;BME280;47864;52.526;19.672;2022-12-07T00:54:16;100237.06;;;2.71;100.00
61908;BME280;47864;52.526;19.672;2022-12-07T00:56:26;100236.78;;;2.87;100.00
61908;BME280;47864;52.526;19.672;2022-12-07T00:58:28;100237.16;;;2.93;100.00
61908;BME280;47864;52.526;19.672;2022-12-07T01:00:30;100229.59;;;2.78;100.00
61908;BME280;47864;52.526;19.672;2022-12-07T01:02:32;100227.16;;;2.75;100.00
61908;BME280;47864;52.526;19.672;2022-12-07T01:04:34;100228.94;;;2.74;100.00
61908;BME280;47864;52.526;19.672;2022-12-07T01:06:36;100232.66;;;2.72;100.00
61908;BME280;47864;52.526;19.672;2022-12-07T01:08:37;100230.53;;;2.77;100.00
61908;BME280;47864;52.526;19.672;2022-12-07T01:10:39;100232.41;;;2.75;100.00
61908;BME280;47864;52.526;19.672;2022-12-07T01:12:41;100224.72;;;2.48;100.00
61908;BME280;47864;52.526;19.672;2022-12-07T01:14:43;100227.34;;;2.60;100.00
61908;BME280;47864;52.526;19.672;2022-12-07T01:16:45;100223.69;;;2.50;100.00
61908;BME280;47864;52.526;19.672;2022-12-07T01:18:49;100222.56;;;2.42;100.00
61908;BME280;47864;52.526;19.672;2022-12-07T01:21:00;100222.44;;;2.43;100.00
61908;BME280;47864;52.526;19.672;2022-12-07T01:23:03;100218.94;;;2.55;100.00
61908;BME280;47864;52.526;19.672;2022-12-07T01:25:06;100217.63;;;2.50;100.00
61908;BME280;47864;52.526;19.672;2022-12-07T01:27:08;100208.88;;;2.38;100.00
61908;BME280;47864;52.526;19.672;2022-12-07T01:29:10;100219.19;;;2.40;100.00
61908;BME280;47864;52.526;19.672;2022-12-07T01:31:17;100214.50;;;2.32;100.00
61908;BME280;47864;52.526;19.672;2022-12-07T01:33:19;100214.50;;;2.32;100.00
61908;BME280;47864;52.526;19.672;2022-12-07T01:35:21;100213.72;;;2.19;100.00
61908;BME280;47864;52.526;19.672;2022-12-07T01:37:23;100215.47;;;2.18;100.00
61908;BME280;47864;52.526;19.672;2022-12-07T01:39:25;100215.91;;;2.12;100.00
61908;BME280;47864;52.526;19.672;2022-12-07T01:41:29;100215.28;;;2.09;100.00
61908;BME280;47864;52.526;19.672;2022-12-07T01:43:32;100214.25;;;2.11;100.00
61908;BME280;47864;52.526;19.672;2022-12-07T01:45:40;100208.91;;;2.13;100.00
61908;BME280;47864;52.526;19.672;2022-12-07T01:47:44;100211.63;;;2.11;100.00
61908;BME280;47864;52.526;19.672;2022-12-07T01:49:48;100213.31;;;2.12;100.00
61908;BME280;47864;52.526;19.672;2022-12-07T01:51:52;100205.34;;;2.14;100.00
61908;BME280;47864;52.526;19.672;2022-12-07T01:53:57;100203.97;;;2.21;100.00
61908;BME280;47864;52.526;19.672;2022-12-07T01:56:00;100206.91;;;2.16;100.00
61908;BME280;47864;52.526;19.672;2022-12-07T01:58:02;100202.22;;;2.09;100.00
61908;BME280;47864;52.526;19.672;2022-12-07T02:00:05;100206.28;;;2.00;100.00
61908;BME280;47864;52.526;19.672;2022-12-07T02:02:13;100195.28;;;2.08;100.00
61908;BME280;47864;52.526;19.672;2022-12-07T02:04:19;100199.59;;;2.09;100.00
61908;BME280;47864;52.526;19.672;2022-12-07T02:06:24;100202.44;;;1.93;100.00
61908;BME280;47864;52.526;19.672;2022-12-07T02:08:27;100192.91;;;1.92;100.00
61908;BME280;47864;52.526;19.672;2022-12-07T02:10:31;100200.00;;;1.90;100.00
61908;BME280;47864;52.526;19.672;2022-12-07T02:12:33;100196.38;;;1.92;100.00
61908;BME280;47864;52.526;19.672;2022-12-07T02:14:34;100196.78;;;1.86;100.00
61908;BME280;47864;52.526;19.672;2022-12-07T02:17:01;100191.56;;;1.86;100.00
61908;BME280;47864;52.526;19.672;2022-12-07T02:26:23;100191.66;;;1.98;100.00
61908;BME280;47864;52.526;19.672;2022-12-07T02:28:45;100189.38;;;1.80;100.00
61908;BME280;47864;52.526;19.672;2022-12-07T02:30:48;100178.19;;;1.78;100.00
61908;BME280;47864;52.526;19.672;2022-12-07T02:32:59;100181.22;;;1.72;100.00
61908;BME280;47864;52.526;19.672;2022-12-07T02:35:07;100174.00;;;1.76;100.00
61908;BME280;47864;52.526;19.672;2022-12-07T02:37:40;100177.00;;;1.82;100.00
61908;BME280;47864;52.526;19.672;2022-12-07T02:39:48;100177.44;;;1.76;100.00
61908;BME280;47864;52.526;19.672;2022-12-07T02:41:56;100171.69;;;1.71;100.00
61908;BME280;47864;52.526;19.672;2022-12-07T02:44:20;100181.31;;;1.83;100.00
61908;BME280;47864;52.526;19.672;2022-12-07T02:46:28;100172.31;;;1.75;100.00
61908;BME280;47864;52.526;19.672;2022-12-07T02:48:32;100181.53;;;1.80;100.00
61908;BME280;47864;52.526;19.672;2022-12-07T02:50:35;100172.63;;;1.70;100.00
61908;BME280;47864;52.526;19.672;2022-12-07T02:52:37;100151.81;;;1.69;100.00
61908;BME280;47864;52.526;19.672;2022-12-07T02:54:42;100167.31;;;1.72;100.00
61908;BME280;47864;52.526;19.672;2022-12-07T02:56:57;100163.94;;;1.57;100.00
61908;BME280;47864;52.526;19.672;2022-12-07T02:59:16;100162.06;;;1.59;100.00
61908;BME280;47864;52.526;19.672;2022-12-07T03:01:43;100161.22;;;1.59;100.00
61908;BME280;47864;52.526;19.672;2022-12-07T03:03:51;100155.59;;;1.52;100.00
61908;BME280;47864;52.526;19.672;2022-12-07T03:06:05;100162.06;;;1.59;100.00
61908;BME280;47864;52.526;19.672;2022-12-07T03:10:50;100161.34;;;1.70;100.00
61908;BME280;47864;52.526;19.672;2022-12-07T03:15:14;100157.88;;;1.82;100.00
61908;BME280;47864;52.526;19.672;2022-12-07T03:17:23;100160.19;;;1.74;100.00
61908;BME280;47864;52.526;19.672;2022-12-07T03:19:27;100152.03;;;1.78;100.00
61908;BME280;47864;52.526;19.672;2022-12-07T03:21:40;100151.31;;;1.64;100.00
61908;BME280;47864;52.526;19.672;2022-12-07T03:23:48;100135.94;;;1.59;100.00
61908;BME280;47864;52.526;19.672;2022-12-07T03:25:55;100144.31;;;1.64;100.00
61908;BME280;47864;52.526;19.672;2022-12-07T03:28:05;100141.78;;;1.63;100.00
61908;BME280;47864;52.526;19.672;2022-12-07T03:30:12;100142.94;;;1.59;100.00
61908;BME280;47864;52.526;19.672;2022-12-07T03:32:27;100145.84;;;1.67;100.00
61908;BME280;47864;52.526;19.672;2022-12-07T03:35:23;100143.47;;;1.51;100.00
61908;BME280;47864;52.526;19.672;2022-12-07T03:37:08;100147.53;;;1.42;100.00
61908;BME280;47864;52.526;19.672;2022-12-07T03:41:30;100146.78;;;1.40;100.00
61908;BME280;47864;52.526;19.672;2022-12-07T03:43:33;100144.63;;;1.47;100.00
61908;BME280;47864;52.526;19.672;2022-12-07T03:45:41;100141.91;;;1.36;100.00
61908;BME280;47864;52.526;19.672;2022-12-07T03:47:53;100140.94;;;1.37;100.00
61908;BME280;47864;52.526;19.672;2022-12-07T03:50:07;100119.53;;;1.32;100.00
61908;BME280;47864;52.526;19.672;2022-12-07T03:52:22;100126.34;;;1.47;100.00
61908;BME280;47864;52.526;19.672;2022-12-07T03:56:50;100126.75;;;1.53;100.00
61908;BME280;47864;52.526;19.672;2022-12-07T03:58:53;100124.22;;;1.52;100.00
61908;BME280;47864;52.526;19.672;2022-12-07T04:00:55;100124.44;;;1.49;100.00
61908;BME280;47864;52.526;19.672;2022-12-07T04:02:57;100121.09;;;1.47;100.00
61908;BME280;47864;52.526;19.672;2022-12-07T04:05:00;100116.50;;;1.50;100.00
61908;BME280;47864;52.526;19.672;2022-12-07T04:07:02;100117.34;;;1.64;100.00
61908;BME280;47864;52.526;19.672;2022-12-07T04:09:04;100114.81;;;1.62;100.00
61908;BME280;47864;52.526;19.672;2022-12-07T04:11:05;100111.38;;;1.62;100.00
61908;BME280;47864;52.526;19.672;2022-12-07T04:13:07;100112.31;;;1.61;100.00
61908;BME280;47864;52.526;19.672;2022-12-07T04:15:09;100116.06;;;1.57;100.00
61908;BME280;47864;52.526;19.672;2022-12-07T04:17:12;100116.50;;;1.50;100.00
61908;BME280;47864;52.526;19.672;2022-12-07T04:19:15;100113.16;;;1.61;100.00
61908;BME280;47864;52.526;19.672;2022-12-07T04:21:17;100102.38;;;1.53;100.00
61908;BME280;47864;52.526;19.672;2022-12-07T04:23:19;100105.72;;;1.55;100.00
61908;BME280;47864;52.526;19.672;2022-12-07T04:25:21;100112.75;;;1.55;100.00
61908;BME280;47864;52.526;19.672;2022-12-07T04:27:23;100108.00;;;1.60;100.00
61908;BME280;47864;52.526;19.672;2022-12-07T04:29:25;100112.09;;;1.51;100.00
61908;BME280;47864;52.526;19.672;2022-12-07T04:31:27;100108.44;;;1.53;100.00
61908;BME280;47864;52.526;19.672;2022-12-07T04:33:29;100107.72;;;1.51;100.00
61908;BME280;47864;52.526;19.672;2022-12-07T04:35:31;100098.09;;;1.52;100.00
61908;BME280;47864;52.526;19.672;2022-12-07T04:37:32;100098.19;;;1.50;100.00
61908;BME280;47864;52.526;19.672;2022-12-07T04:39:34;100095.47;;;1.52;100.00
61908;BME280;47864;52.526;19.672;2022-12-07T04:41:36;100095.34;;;1.66;100.00
61908;BME280;47864;52.526;19.672;2022-12-07T04:43:38;100091.91;;;1.66;100.00
61908;BME280;47864;52.526;19.672;2022-12-07T04:45:45;100092.34;;;1.60;100.00
61908;BME280;47864;52.526;19.672;2022-12-07T04:47:47;100093.16;;;1.60;100.00
61908;BME280;47864;52.526;19.672;2022-12-07T04:49:49;100087.44;;;1.55;100.00
61908;BME280;47864;52.526;19.672;2022-12-07T04:51:51;100087.44;;;1.55;100.00
61908;BME280;47864;52.526;19.672;2022-12-07T04:53:54;100088.28;;;1.56;100.00
61908;BME280;47864;52.526;19.672;2022-12-07T04:55:56;100087.41;;;1.68;100.00
61908;BME280;47864;52.526;19.672;2022-12-07T04:57:57;100092.19;;;1.74;100.00
61908;BME280;47864;52.526;19.672;2022-12-07T04:59:59;100091.16;;;1.76;100.00
61908;BME280;47864;52.526;19.672;2022-12-07T05:02:02;100085.84;;;1.65;100.00
61908;BME280;47864;52.526;19.672;2022-12-07T05:04:04;100064.63;;;1.57;100.00
61908;BME280;47864;52.526;19.672;2022-12-07T05:06:07;100072.16;;;1.62;100.00
61908;BME280;47864;52.526;19.672;2022-12-07T05:08:14;100074.25;;;1.69;100.00
61908;BME280;47864;52.526;19.672;2022-12-07T05:10:16;100078.00;;;1.65;100.00
61908;BME280;47864;52.526;19.672;2022-12-07T05:12:18;100070.69;;;1.70;100.00
61908;BME280;47864;52.526;19.672;2022-12-07T05:14:21;100073.28;;;1.70;100.00
61908;BME280;47864;52.526;19.672;2022-12-07T05:16:23;100066.28;;;1.71;100.00
61908;BME280;47864;52.526;19.672;2022-12-07T05:18:25;100069.94;;;1.68;100.00
61908;BME280;47864;52.526;19.672;2022-12-07T05:20:27;100074.78;;;1.62;100.00
61908;BME280;47864;52.526;19.672;2022-12-07T05:22:28;100071.31;;;1.61;100.00
61908;BME280;47864;52.526;19.672;2022-12-07T05:24:30;100063.56;;;1.72;100.00
61908;BME280;47864;52.526;19.672;2022-12-07T05:26:32;100069.41;;;1.76;100.00
61908;BME280;47864;52.526;19.672;2022-12-07T05:28:34;100069.09;;;1.80;100.00
61908;BME280;47864;52.526;19.672;2022-12-07T05:30:36;100073.59;;;1.66;100.00
61908;BME280;47864;52.526;19.672;2022-12-07T05:32:38;100069.00;;;1.69;100.00
61908;BME280;47864;52.526;19.672;2022-12-07T05:34:41;100066.72;;;1.65;100.00
61908;BME280;47864;52.526;19.672;2022-12-07T05:36:43;100068.16;;;1.69;100.00
61908;BME280;47864;52.526;19.672;2022-12-07T05:38:45;100070.88;;;1.67;100.00
61908;BME280;47864;52.526;19.672;2022-12-07T05:40:47;100074.66;;;1.63;100.00
61908;BME280;47864;52.526;19.672;2022-12-07T05:42:49;100066.59;;;1.66;100.00
61908;BME280;47864;52.526;19.672;2022-12-07T05:44:51;100073.00;;;1.62;100.00
61908;BME280;47864;52.526;19.672;2022-12-07T05:46:53;100076.75;;;1.71;100.00
61908;BME280;47864;52.526;19.672;2022-12-07T05:48:54;100069.94;;;1.68;100.00
61908;BME280;47864;52.526;19.672;2022-12-07T05:50:56;100067.44;;;1.67;100.00
61908;BME280;47864;52.526;19.672;2022-12-07T05:52:58;100069.94;;;1.68;100.00
61908;BME280;47864;52.526;19.672;2022-12-07T05:55:00;100064.13;;;1.65;100.00
61908;BME280;47864;52.526;19.672;2022-12-07T05:57:02;100054.81;;;1.61;100.00
61908;BME280;47864;52.526;19.672;2022-12-07T05:59:04;100067.78;;;1.62;100.00
61908;BME280;47864;52.526;19.672;2022-12-07T06:01:05;100070.47;;;1.61;100.00
61908;BME280;47864;52.526;19.672;2022-12-07T06:03:07;100071.13;;;1.64;100.00
61908;BME280;47864;52.526;19.672;2022-12-07T06:05:09;100063.16;;;1.66;100.00
61908;BME280;47864;52.526;19.672;2022-12-07T06:07:13;100067.03;;;1.73;100.00
61908;BME280;47864;52.526;19.672;2022-12-07T06:09:15;100060.31;;;1.69;100.00
61908;BME280;47864;52.526;19.672;2022-12-07T06:11:17;100066.59;;;1.66;100.00
61908;BME280;47864;52.526;19.672;2022-12-07T06:13:19;100056.88;;;1.68;100.00
61908;BME280;47864;52.526;19.672;2022-12-07T06:15:21;100062.09;;;1.68;100.00
61908;BME280;47864;52.526;19.672;2022-12-07T06:17:23;100064.41;;;1.73;100.00
61908;BME280;47864;52.526;19.672;2022-12-07T06:19:25;100069.50;;;1.74;100.00
61908;BME280;47864;52.526;19.672;2022-12-07T06:21:27;100064.28;;;1.74;100.00
61908;BME280;47864;52.526;19.672;2022-12-07T06:23:29;100065.22;;;1.73;100.00
61908;BME280;47864;52.526;19.672;2022-12-07T06:25:30;100068.81;;;1.72;100.00
61908;BME280;47864;52.526;19.672;2022-12-07T06:27:32;100065.22;;;1.73;100.00
61908;BME280;47864;52.526;19.672;2022-12-07T06:29:34;100051.00;;;1.77;100.00
61908;BME280;47864;52.526;19.672;2022-12-07T06:31:37;100059.19;;;1.73;100.00
61908;BME280;47864;52.526;19.672;2022-12-07T06:33:39;100061.47;;;1.77;100.00
61908;BME280;47864;52.526;19.672;2022-12-07T06:35:41;100068.38;;;1.78;100.00
61908;BME280;47864;52.526;19.672;2022-12-07T06:37:42;100063.34;;;1.75;100.00
61908;BME280;47864;52.526;19.672;2022-12-07T06:39:45;100064.38;;;1.85;100.00
61908;BME280;47864;52.526;19.672;2022-12-07T06:41:46;100052.03;;;1.75;100.00
61908;BME280;47864;52.526;19.672;2022-12-07T06:43:49;100066.03;;;1.86;100.00
61908;BME280;47864;52.526;19.672;2022-12-07T06:45:56;100056.03;;;1.80;100.00
61908;BME280;47864;52.526;19.672;2022-12-07T06:47:58;100067.28;;;1.94;100.00
61908;BME280;47864;52.526;19.672;2022-12-07T06:50:00;100069.78;;;1.95;100.00
61908;BME280;47864;52.526;19.672;2022-12-07T06:52:03;100065.28;;;1.97;100.00
61908;BME280;47864;52.526;19.672;2022-12-07T06:54:05;100078.38;;;1.97;100.00
61908;BME280;47864;52.526;19.672;2022-12-07T06:56:07;100051.63;;;1.81;100.00
61908;BME280;47864;52.526;19.672;2022-12-07T06:58:09;100065.81;;;1.89;100.00
61908;BME280;47864;52.526;19.672;2022-12-07T07:00:11;100072.94;;;1.87;100.00
61908;BME280;47864;52.526;19.672;2022-12-07T07:02:21;100055.72;;;1.72;100.00
61908;BME280;47864;52.526;19.672;2022-12-07T07:04:23;100069.81;;;1.82;100.00
61908;BME280;47864;52.526;19.672;2022-12-07T07:06:25;100074.81;;;1.85;100.00
61908;BME280;47864;52.526;19.672;2022-12-07T07:08:27;100068.56;;;1.75;100.00
61908;BME280;47864;52.526;19.672;2022-12-07T07:10:29;100077.78;;;1.81;100.00
61908;BME280;47864;52.526;19.672;2022-12-07T07:12:31;100065.47;;;1.70;100.00
61908;BME280;47864;52.526;19.672;2022-12-07T07:14:33;100071.19;;;1.75;100.00
61908;BME280;47864;52.526;19.672;2022-12-07T07:16:35;100081.19;;;1.81;100.00
61908;BME280;47864;52.526;19.672;2022-12-07T07:18:37;100074.66;;;1.63;100.00
61908;BME280;47864;52.526;19.672;2022-12-07T07:20:39;100083.97;;;1.67;100.00
61908;BME280;47864;52.526;19.672;2022-12-07T07:22:40;100070.47;;;1.61;100.00
61908;BME280;47864;52.526;19.672;2022-12-07T07:24:42;100084.28;;;1.63;100.00
61908;BME280;47864;52.526;19.672;2022-12-07T07:26:44;100091.06;;;1.65;100.00
61908;BME280;47864;52.526;19.672;2022-12-07T07:28:46;100078.97;;;1.64;100.00
61908;BME280;47864;52.526;19.672;2022-12-07T07:30:48;100084.19;;;1.64;100.00
61908;BME280;47864;52.526;19.672;2022-12-07T07:32:50;100074.03;;;1.72;100.00
61908;BME280;47864;52.526;19.672;2022-12-07T07:34:52;100084.34;;;1.74;100.00
61908;BME280;47864;52.526;19.672;2022-12-07T07:36:54;100078.97;;;1.64;100.00
61908;BME280;47864;52.526;19.672;2022-12-07T07:38:56;100090.84;;;1.68;100.00
61908;BME280;47864;52.526;19.672;2022-12-07T07:40:57;100088.78;;;1.61;100.00
61908;BME280;47864;52.526;19.672;2022-12-07T07:42:59;100088.59;;;1.64;100.00
61908;BME280;47864;52.526;19.672;2022-12-07T07:45:01;100094.50;;;1.66;100.00
61908;BME280;47864;52.526;19.672;2022-12-07T07:47:03;100092.34;;;1.72;100.00
61908;BME280;47864;52.526;19.672;2022-12-07T07:49:05;100096.19;;;1.67;100.00
61908;BME280;47864;52.526;19.672;2022-12-07T07:51:07;100105.19;;;1.63;100.00
61908;BME280;47864;52.526;19.672;2022-12-07T07:53:09;100083.22;;;1.65;100.00
61908;BME280;47864;52.526;19.672;2022-12-07T07:55:11;100095.59;;;1.63;100.00
61908;BME280;47864;52.526;19.672;2022-12-07T07:57:16;100091.50;;;1.59;100.00
61908;BME280;47864;52.526;19.672;2022-12-07T07:59:17;100106.97;;;1.49;100.00
61908;BME280;47864;52.526;19.672;2022-12-07T08:01:19;100101.88;;;1.48;100.00
61908;BME280;47864;52.526;19.672;2022-12-07T08:03:21;100107.19;;;1.59;100.00
61908;BME280;47864;52.526;19.672;2022-12-07T08:05:23;100100.91;;;1.62;100.00
61908;BME280;47864;52.526;19.672;2022-12-07T08:07:27;100098.59;;;1.57;100.00
61908;BME280;47864;52.526;19.672;2022-12-07T08:09:28;100097.66;;;1.58;100.00
61908;BME280;47864;52.526;19.672;2022-12-07T08:11:30;100103.81;;;1.57;100.00
61908;BME280;47864;52.526;19.672;2022-12-07T08:13:32;100103.31;;;1.52;100.00
61908;BME280;47864;52.526;19.672;2022-12-07T08:15:36;100103.31;;;1.52;100.00
61908;BME280;47864;52.526;19.672;2022-12-07T08:17:39;100101.94;;;1.59;100.00
61908;BME280;47864;52.526;19.672;2022-12-07T08:19:41;100104.66;;;1.58;100.00
61908;BME280;47864;52.526;19.672;2022-12-07T08:21:42;100114.50;;;1.54;100.00
61908;BME280;47864;52.526;19.672;2022-12-07T08:23:45;100106.66;;;1.54;100.00
61908;BME280;47864;52.526;19.672;2022-12-07T08:25:47;100111.06;;;1.53;100.00
61908;BME280;47864;52.526;19.672;2022-12-07T08:27:49;100089.41;;;1.51;100.00
61908;BME280;47864;52.526;19.672;2022-12-07T08:29:51;100109.59;;;1.49;100.00
61908;BME280;47864;52.526;19.672;2022-12-07T08:31:53;100117.56;;;1.48;100.00
61908;BME280;47864;52.526;19.672;2022-12-07T08:33:55;100117.31;;;1.51;100.00
61908;BME280;47864;52.526;19.672;2022-12-07T08:36:11;100111.66;;;1.57;100.00
61908;BME280;47864;52.526;19.672;2022-12-07T08:38:13;100117.31;;;1.51;100.00
61908;BME280;47864;52.526;19.672;2022-12-07T08:40:15;100111.91;;;1.54;100.00
61908;BME280;47864;52.526;19.672;2022-12-07T08:42:17;100117.31;;;1.51;100.00
61908;BME280;47864;52.526;19.672;2022-12-07T08:44:19;100120.97;;;1.48;100.00
61908;BME280;47864;52.526;19.672;2022-12-07T08:48:42;100104.91;;;1.55;100.00
61908;BME280;47864;52.526;19.672;2022-12-07T08:50:48;100113.69;;;1.53;100.00
61908;BME280;47864;52.526;19.672;2022-12-07T08:52:55;100110.53;;;1.48;100.00
61908;BME280;47864;52.526;19.672;2022-12-07T08:54:59;100110.31;;;1.51;100.00
61908;BME280;47864;52.526;19.672;2022-12-07T08:57:02;100115.97;;;1.58;100.00
61908;BME280;47864;52.526;19.672;2022-12-07T08:59:06;100106.56;;;1.56;100.00
61908;BME280;47864;52.526;19.672;2022-12-07T09:01:08;100107.91;;;1.61;100.00
61908;BME280;47864;52.526;19.672;2022-12-07T09:03:10;100106.03;;;1.63;100.00
61908;BME280;47864;52.526;19.672;2022-12-07T09:05:12;100103.72;;;1.71;100.00
61908;BME280;47864;52.526;19.672;2022-12-07T09:07:17;100092.09;;;1.75;100.00
61908;BME280;47864;52.526;19.672;2022-12-07T09:09:19;100070.28;;;1.64;100.00
61908;BME280;47864;52.526;19.672;2022-12-07T09:11:21;100085.72;;;1.79;100.00
61908;BME280;47864;52.526;19.672;2022-12-07T09:13:29;100084.88;;;1.79;100.00
61908;BME280;47864;52.526;19.672;2022-12-07T09:15:31;100078.44;;;1.72;100.00
61908;BME280;47864;52.526;19.672;2022-12-07T09:17:33;100085.63;;;1.81;100.00
61908;BME280;47864;52.526;19.672;2022-12-07T09:19:36;100086.03;;;1.87;100.00
61908;BME280;47864;52.526;19.672;2022-12-07T09:21:38;100097.81;;;1.93;100.00
61908;BME280;47864;52.526;19.672;2022-12-07T09:23:43;100091.88;;;2.15;100.00
61908;BME280;47864;52.526;19.672;2022-12-07T09:25:45;100080.28;;;2.19;100.00
61908;BME280;47864;52.526;19.672;2022-12-07T09:27:47;100081.69;;;1.99;100.00
61908;BME280;47864;52.526;19.672;2022-12-07T09:29:49;100078.75;;;2.04;100.00
61908;BME280;47864;52.526;19.672;2022-12-07T09:31:51;100086.50;;;2.05;100.00
61908;BME280;47864;52.526;19.672;2022-12-07T09:34:00;100069.44;;;2.00;100.00
61908;BME280;47864;52.526;19.672;2022-12-07T09:36:03;100083.25;;;2.02;100.00
61908;BME280;47864;52.526;19.672;2022-12-07T09:38:05;100085.81;;;2.14;100.00
61908;BME280;47864;52.526;19.672;2022-12-07T09:40:07;100079.81;;;2.25;100.00
61908;BME280;47864;52.526;19.672;2022-12-07T09:42:41;100075.94;;;2.31;100.00
61908;BME280;47864;52.526;19.672;2022-12-07T09:44:41;100072.91;;;2.48;100.00
61908;BME280;47864;52.526;19.672;2022-12-07T09:46:43;100071.00;;;2.39;100.00
61908;BME280;47864;52.526;19.672;2022-12-07T09:48:47;100076.09;;;2.40;100.00
61908;BME280;47864;52.526;19.672;2022-12-07T09:50:50;100074.19;;;2.42;100.00
61908;BME280;47864;52.526;19.672;2022-12-07T09:55:27;100062.59;;;2.57;100.00
61908;BME280;47864;52.526;19.672;2022-12-07T09:57:32;100064.19;;;2.36;100.00
61908;BME280;47864;52.526;19.672;2022-12-07T09:59:37;100066.91;;;2.35;100.00
61908;BME280;47864;52.526;19.672;2022-12-07T10:01:39;100060.34;;;2.53;100.00
61908;BME280;47864;52.526;19.672;2022-12-07T10:04:09;100057.63;;;2.54;100.00
61908;BME280;47864;52.526;19.672;2022-12-07T10:06:12;100067.00;;;2.57;100.00
61908;BME280;47864;52.526;19.672;2022-12-07T10:08:14;100060.25;;;2.65;100.00
61908;BME280;47864;52.526;19.672;2022-12-07T10:10:23;100062.84;;;2.54;100.00
61908;BME280;47864;52.526;19.672;2022-12-07T10:12:25;100065.06;;;2.48;100.00
61908;BME280;47864;52.526;19.672;2022-12-07T10:14:29;100057.00;;;2.51;100.00
61908;BME280;47864;52.526;19.672;2022-12-07T10:16:51;100059.50;;;2.52;100.00
61908;BME280;47864;52.526;19.672;2022-12-07T10:18:54;100054.72;;;2.46;100.00
61908;BME280;47864;52.526;19.672;2022-12-07T10:21:11;100034.00;;;2.43;100.00
61908;BME280;47864;52.526;19.672;2022-12-07T10:23:15;100052.94;;;2.47;100.00
61908;BME280;47864;52.526;19.672;2022-12-07T10:25:19;100053.88;;;2.46;100.00
61908;BME280;47864;52.526;19.672;2022-12-07T10:27:31;100048.09;;;2.53;100.00
61908;BME280;47864;52.526;19.672;2022-12-07T10:29:36;100045.84;;;2.60;100.00
61908;BME280;47864;52.526;19.672;2022-12-07T10:31:39;100039.03;;;2.57;100.00
61908;BME280;47864;52.526;19.672;2022-12-07T10:33:59;100047.41;;;2.74;100.00
61908;BME280;47864;52.526;19.672;2022-12-07T10:38:17;100049.63;;;2.91;100.00
61908;BME280;47864;52.526;19.672;2022-12-07T10:40:28;100039.00;;;2.81;100.00
61908;BME280;47864;52.526;19.672;2022-12-07T10:42:31;100028.63;;;2.68;100.00
61908;BME280;47864;52.526;19.672;2022-12-07T10:44:34;100016.25;;;2.71;100.00
61908;BME280;47864;52.526;19.672;2022-12-07T10:46:48;100028.56;;;3.03;100.00
61908;BME280;47864;52.526;19.672;2022-12-07T10:49:07;100033.47;;;3.19;100.00
61908;BME280;47864;52.526;19.672;2022-12-07T10:59:04;100024.31;;;3.25;100.00
61908;BME280;47864;52.526;19.672;2022-12-07T11:01:25;100028.69;;;3.24;100.00
61908;BME280;47864;52.526;19.672;2022-12-07T11:05:49;100019.91;;;3.36;100.00
61908;BME280;47864;52.526;19.672;2022-12-07T11:08:44;100020.59;;;3.38;100.00
61908;BME280;47864;52.526;19.672;2022-12-07T11:15:26;100005.09;;;3.13;100.00
61908;BME280;47864;52.526;19.672;2022-12-07T11:17:36;100011.06;;;3.15;100.00
61908;BME280;47864;52.526;19.672;2022-12-07T11:19:52;100009.16;;;2.95;100.00
61908;BME280;47864;52.526;19.672;2022-12-07T11:22:27;100007.97;;;3.10;100.00